createdAt,value
2022-12-31T00:02:19.042Z,20.35
2022-12-31T00:04:45.864Z,20.95
2022-12-31T00:07:12.654Z,21.98
2022-12-31T00:09:39.395Z,22.58
2022-12-31T00:12:06.396Z,19.08
2022-12-31T00:14:33.098Z,18.90
2022-12-31T00:16:59.939Z,20.95
2022-12-31T00:19:26.682Z,20.67
2022-12-31T00:21:53.451Z,18.88
2022-12-31T00:24:20.218Z,19.88
2022-12-31T00:26:47.005Z,15.05
2022-12-31T00:29:13.721Z,19.48
2022-12-31T00:31:40.461Z,16.55
2022-12-31T00:34:07.581Z,19.30
2022-12-31T00:36:37.127Z,17.23
2022-12-31T00:39:05.623Z,18.42
2022-12-31T00:41:32.586Z,18.95
2022-12-31T00:44:00.091Z,22.45
2022-12-31T00:46:27.143Z,21.55
2022-12-31T00:48:54.169Z,20.20
2022-12-31T00:51:23.219Z,20.80
2022-12-31T00:53:50.076Z,22.35
2022-12-31T00:56:19.665Z,23.17
2022-12-31T00:58:47.300Z,22.50
2022-12-31T01:01:16.760Z,20.92
2022-12-31T01:03:43.672Z,18.70
2022-12-31T01:06:10.685Z,18.58
2022-12-31T01:08:37.441Z,19.73
2022-12-31T01:11:22.146Z,19.77
2022-12-31T01:14:01.474Z,18.83
2022-12-31T01:16:32.711Z,20.35
2022-12-31T01:19:01.651Z,21.58
2022-12-31T01:21:29.643Z,23.50
2022-12-31T01:23:56.391Z,23.67
2022-12-31T01:26:23.128Z,22.38
2022-12-31T01:28:49.995Z,21.52
2022-12-31T01:31:18.779Z,21.63
2022-12-31T01:33:46.265Z,20.35
2022-12-31T01:36:14.307Z,21.08
2022-12-31T01:38:42.233Z,20.30
2022-12-31T01:41:14.173Z,19.92
2022-12-31T01:43:45.408Z,23.05
2022-12-31T01:46:17.914Z,20.05
2022-12-31T01:48:49.816Z,22.73
2022-12-31T01:51:17.000Z,21.08
2022-12-31T01:53:44.015Z,20.27
2022-12-31T01:56:10.954Z,22.58
2022-12-31T01:58:45.996Z,18.83
2022-12-31T02:01:20.332Z,18.20
2022-12-31T02:03:47.237Z,19.30
2022-12-31T02:06:20.505Z,17.67
2022-12-31T02:08:47.869Z,16.98
2022-12-31T02:11:36.746Z,17.60
2022-12-31T02:14:17.215Z,19.58
2022-12-31T02:16:52.865Z,18.85
2022-12-31T02:19:51.119Z,20.42
2022-12-31T02:22:54.966Z,20.50
2022-12-31T02:25:40.294Z,20.00
2022-12-31T02:28:28.320Z,20.55
2022-12-31T02:31:01.982Z,18.63
2022-12-31T02:33:58.549Z,16.67
2022-12-31T02:36:30.875Z,15.48
2022-12-31T02:38:58.580Z,14.88
2022-12-31T02:41:44.182Z,10.73
2022-12-31T02:44:39.106Z,13.80
2022-12-31T02:47:08.643Z,16.45
2022-12-31T02:49:53.539Z,18.27
2022-12-31T02:52:41.826Z,18.50
2022-12-31T02:55:34.630Z,19.92
2022-12-31T02:58:01.279Z,22.67
2022-12-31T03:00:50.125Z,20.40
2022-12-31T03:03:19.147Z,21.55
2022-12-31T03:05:50.000Z,21.15
2022-12-31T03:08:24.408Z,20.23
2022-12-31T03:10:51.264Z,20.85
2022-12-31T03:13:18.693Z,19.38
2022-12-31T03:15:48.028Z,27.42
2022-12-31T03:18:17.443Z,19.42
2022-12-31T03:21:08.814Z,19.33
2022-12-31T03:23:43.029Z,19.40
2022-12-31T03:26:12.141Z,18.08
2022-12-31T03:28:41.750Z,16.58
2022-12-31T03:31:09.314Z,16.35
2022-12-31T03:33:39.606Z,14.23
2022-12-31T03:36:09.605Z,18.25
2022-12-31T03:38:36.673Z,13.52
2022-12-31T03:41:03.909Z,19.65
2022-12-31T03:45:59.813Z,20.08
2022-12-31T03:48:26.751Z,19.65
2022-12-31T03:50:53.480Z,20.27
2022-12-31T03:53:20.346Z,19.55
2022-12-31T03:55:51.940Z,18.15
2022-12-31T03:58:18.676Z,17.88
2022-12-31T04:00:45.451Z,17.08
2022-12-31T04:03:12.331Z,21.90
2022-12-31T04:05:39.183Z,30.08
2022-12-31T04:08:05.964Z,19.77
2022-12-31T04:10:32.718Z,32.97
2022-12-31T04:13:02.389Z,22.90
2022-12-31T04:15:29.227Z,21.67
2022-12-31T04:17:55.942Z,23.27
2022-12-31T04:20:22.747Z,20.65
2022-12-31T04:22:49.511Z,20.25
2022-12-31T04:25:16.398Z,20.45
2022-12-31T04:27:44.178Z,11.85
2022-12-31T04:30:13.109Z,15.40
2022-12-31T04:32:39.988Z,15.75
2022-12-31T04:35:07.790Z,13.48
2022-12-31T04:37:34.634Z,14.10
2022-12-31T04:40:05.852Z,15.32
2022-12-31T04:42:34.058Z,16.52
2022-12-31T04:45:00.864Z,16.92
2022-12-31T04:47:27.648Z,13.88
2022-12-31T04:49:54.388Z,13.75
2022-12-31T04:52:21.298Z,16.63
2022-12-31T04:54:48.086Z,15.93
2022-12-31T04:57:14.893Z,19.25
2022-12-31T04:59:41.713Z,19.20
2022-12-31T05:02:08.532Z,18.98
2022-12-31T05:04:35.486Z,16.80
2022-12-31T05:07:02.289Z,15.00
2022-12-31T05:09:29.756Z,16.63
2022-12-31T05:11:56.520Z,13.85
2022-12-31T05:14:23.333Z,18.42
2022-12-31T05:16:50.654Z,15.82
2022-12-31T05:19:17.435Z,15.85
2022-12-31T05:21:44.424Z,16.70
2022-12-31T05:24:11.126Z,14.75
2022-12-31T05:26:37.821Z,12.35
2022-12-31T05:29:04.585Z,18.80
2022-12-31T05:31:31.358Z,16.85
2022-12-31T05:33:58.149Z,18.83
2022-12-31T05:36:24.901Z,17.58
2022-12-31T05:38:51.637Z,17.52
2022-12-31T05:41:18.349Z,17.92
2022-12-31T05:43:45.140Z,17.08
2022-12-31T05:46:11.891Z,22.35
2022-12-31T05:48:38.675Z,19.55
2022-12-31T05:51:05.546Z,18.33
2022-12-31T05:53:34.436Z,16.80
2022-12-31T05:56:01.301Z,18.75
2022-12-31T05:58:28.111Z,17.08
2022-12-31T06:00:54.970Z,17.77
2022-12-31T06:03:21.794Z,13.93
2022-12-31T06:05:48.685Z,12.00
2022-12-31T06:08:16.082Z,15.70
2022-12-31T06:10:42.854Z,15.85
2022-12-31T06:13:09.628Z,14.75
2022-12-31T06:15:40.525Z,11.20
2022-12-31T06:18:07.400Z,10.27
2022-12-31T06:20:36.992Z,11.93
2022-12-31T06:23:04.491Z,12.93
2022-12-31T06:25:31.311Z,15.45
2022-12-31T06:27:58.071Z,15.75
2022-12-31T06:30:24.817Z,18.88
2022-12-31T06:32:51.554Z,18.50
2022-12-31T06:35:18.313Z,22.23
2022-12-31T06:37:45.247Z,19.42
2022-12-31T06:40:12.740Z,20.95
2022-12-31T06:42:39.513Z,22.25
2022-12-31T06:45:07.091Z,27.38
2022-12-31T06:47:33.883Z,27.15
2022-12-31T06:50:00.575Z,19.90
2022-12-31T06:52:27.393Z,20.83
2022-12-31T06:54:56.465Z,19.48
2022-12-31T06:57:23.654Z,19.08
2022-12-31T07:02:50.285Z,18.88
2022-12-31T07:05:35.880Z,18.65
2022-12-31T07:08:16.515Z,19.40
2022-12-31T07:11:06.002Z,17.92
2022-12-31T07:13:32.745Z,17.40
2022-12-31T07:16:02.439Z,17.48
2022-12-31T07:18:38.277Z,16.60
2022-12-31T07:21:18.746Z,17.10
2022-12-31T07:23:45.773Z,17.85
2022-12-31T07:26:33.450Z,17.50
2022-12-31T07:29:17.446Z,17.70
2022-12-31T07:32:02.811Z,19.35
2022-12-31T07:35:05.306Z,19.95
2022-12-31T07:37:35.191Z,19.67
2022-12-31T07:40:15.594Z,18.83
2022-12-31T07:43:03.203Z,19.70
2022-12-31T07:45:52.746Z,27.63
2022-12-31T07:48:25.635Z,20.00
2022-12-31T07:50:57.159Z,21.83
2022-12-31T07:53:25.315Z,20.05
2022-12-31T07:55:58.371Z,21.63
2022-12-31T07:58:48.413Z,24.20
2022-12-31T08:01:20.034Z,24.55
2022-12-31T08:04:09.695Z,24.58
2022-12-31T08:06:49.453Z,23.10
2022-12-31T08:09:16.463Z,25.58
2022-12-31T08:11:54.938Z,38.22
2022-12-31T08:14:22.248Z,22.85
2022-12-31T08:16:49.161Z,21.20
2022-12-31T08:19:27.478Z,19.23
2022-12-31T08:22:05.742Z,17.58
2022-12-31T08:24:58.178Z,17.73
2022-12-31T08:27:46.780Z,13.93
2022-12-31T08:33:10.284Z,16.48
2022-12-31T08:35:57.206Z,16.58
2022-12-31T08:38:42.364Z,15.38
2022-12-31T08:41:23.044Z,15.85
2022-12-31T08:43:56.415Z,16.13
2022-12-31T08:46:32.387Z,16.60
2022-12-31T08:49:00.582Z,14.95
2022-12-31T08:51:27.952Z,15.50
2022-12-31T08:53:55.437Z,16.27
2022-12-31T08:56:33.089Z,16.98
2022-12-31T08:59:12.647Z,14.15
2022-12-31T09:02:18.099Z,12.32
2022-12-31T09:05:20.084Z,11.73
2022-12-31T09:07:55.739Z,10.70
2022-12-31T09:10:57.354Z,11.73
2022-12-31T09:13:47.874Z,10.50
2022-12-31T09:16:33.765Z,11.90
2022-12-31T09:19:00.568Z,12.02
2022-12-31T09:21:27.512Z,12.85
2022-12-31T09:23:54.717Z,12.77
2022-12-31T09:28:59.663Z,11.82
2022-12-31T09:31:45.437Z,11.45
2022-12-31T09:34:28.426Z,11.00
2022-12-31T09:37:01.011Z,11.68
2022-12-31T09:39:33.736Z,11.27
2022-12-31T09:42:15.672Z,12.23
2022-12-31T09:45:07.203Z,10.55
2022-12-31T09:47:52.811Z,11.32
2022-12-31T09:50:35.592Z,10.75
2022-12-31T09:53:37.633Z,11.10
2022-12-31T09:56:35.403Z,11.48
2022-12-31T09:59:29.243Z,11.68
2022-12-31T10:02:23.990Z,11.40
2022-12-31T10:05:09.832Z,12.02
2022-12-31T10:07:52.006Z,9.88
2022-12-31T10:10:43.210Z,9.95
2022-12-31T10:13:29.607Z,11.23
2022-12-31T10:16:10.497Z,9.50
2022-12-31T10:19:08.067Z,10.93
2022-12-31T10:21:46.876Z,12.50
2022-12-31T10:24:16.251Z,11.90
2022-12-31T10:26:55.991Z,9.82
2022-12-31T10:29:43.081Z,9.45
2022-12-31T10:32:33.475Z,9.32
2022-12-31T10:35:18.112Z,8.82
2022-12-31T10:38:17.299Z,10.40
2022-12-31T10:40:56.198Z,9.02
2022-12-31T10:43:53.904Z,10.95
2022-12-31T10:46:57.970Z,10.30
2022-12-31T10:49:50.770Z,10.77
2022-12-31T10:52:41.724Z,10.32
2022-12-31T10:55:29.187Z,11.73
2022-12-31T10:58:30.789Z,10.13
2022-12-31T11:01:09.353Z,10.38
2022-12-31T11:04:00.850Z,10.43
2022-12-31T11:06:30.253Z,10.35
2022-12-31T11:09:15.440Z,10.95
2022-12-31T11:11:48.062Z,11.02
2022-12-31T11:14:47.000Z,10.63
2022-12-31T11:20:23.774Z,9.85
2022-12-31T11:22:53.532Z,8.27
2022-12-31T11:25:29.566Z,9.93
2022-12-31T11:28:30.289Z,7.78
2022-12-31T11:31:34.197Z,8.10
2022-12-31T11:34:22.385Z,8.43
2022-12-31T11:36:51.828Z,8.82
2022-12-31T11:40:01.271Z,8.38
2022-12-31T11:42:46.492Z,9.68
2022-12-31T11:45:25.091Z,7.43
2022-12-31T11:48:33.009Z,6.43
2022-12-31T11:51:35.898Z,6.68
2022-12-31T11:54:25.504Z,7.05
2022-12-31T11:57:30.688Z,6.15
2022-12-31T12:00:02.201Z,6.57
2022-12-31T12:02:46.229Z,6.93
2022-12-31T12:05:16.922Z,6.45
2022-12-31T12:07:44.059Z,6.20
2022-12-31T12:10:35.735Z,5.70
2022-12-31T12:13:11.589Z,6.10
2022-12-31T12:15:38.561Z,7.13
2022-12-31T12:18:29.680Z,6.43
2022-12-31T12:21:12.477Z,6.07
2022-12-31T12:23:40.013Z,6.10
2022-12-31T12:26:07.699Z,6.72
2022-12-31T12:28:44.996Z,7.47
2022-12-31T12:31:22.351Z,7.15
2022-12-31T12:33:50.878Z,6.97
2022-12-31T12:36:20.245Z,7.03
2022-12-31T12:38:47.321Z,6.28
2022-12-31T12:41:25.266Z,6.35
2022-12-31T12:46:47.815Z,8.50
2022-12-31T12:49:27.235Z,7.45
2022-12-31T12:52:15.749Z,7.00
2022-12-31T12:55:00.735Z,6.80
2022-12-31T12:57:46.291Z,7.15
2022-12-31T13:00:16.894Z,6.07
2022-12-31T13:03:04.414Z,7.97
2022-12-31T13:05:48.733Z,7.70
2022-12-31T13:08:24.482Z,8.55
2022-12-31T13:11:32.917Z,7.47
2022-12-31T13:14:18.025Z,8.93
2022-12-31T13:17:04.188Z,8.10
2022-12-31T13:19:33.870Z,8.05
2022-12-31T13:22:25.603Z,7.93
2022-12-31T13:25:04.373Z,8.15
2022-12-31T13:27:35.015Z,8.10
2022-12-31T13:30:04.536Z,8.52
2022-12-31T13:32:42.962Z,8.95
2022-12-31T13:35:27.184Z,9.98
2022-12-31T13:38:05.373Z,8.98
2022-12-31T13:40:49.575Z,8.65
2022-12-31T13:43:27.903Z,8.35
2022-12-31T13:46:16.769Z,6.85
2022-12-31T13:49:19.341Z,8.18
2022-12-31T13:51:47.687Z,6.80
2022-12-31T13:54:36.107Z,6.57
2022-12-31T13:57:11.537Z,6.65
2022-12-31T13:59:43.622Z,6.45
2022-12-31T14:02:31.655Z,6.50
2022-12-31T14:05:12.933Z,6.82
2022-12-31T14:07:53.666Z,6.65
2022-12-31T14:10:46.644Z,6.68
2022-12-31T14:18:51.521Z,8.52
2022-12-31T14:21:27.094Z,7.20
2022-12-31T14:24:03.236Z,7.13
2022-12-31T14:26:32.682Z,7.82
2022-12-31T14:29:31.638Z,7.28
2022-12-31T14:32:11.574Z,6.93
2022-12-31T14:35:02.868Z,6.75
2022-12-31T14:37:35.759Z,8.23
2022-12-31T14:40:38.093Z,7.55
2022-12-31T14:43:07.659Z,6.78
2022-12-31T14:46:01.371Z,7.20
2022-12-31T14:48:42.049Z,7.90
2022-12-31T14:51:09.505Z,7.00
2022-12-31T14:53:36.224Z,6.50
2022-12-31T14:56:06.361Z,7.68
2022-12-31T14:58:35.194Z,8.15
2022-12-31T15:01:22.785Z,64.18
2022-12-31T15:03:50.615Z,8.27
2022-12-31T15:06:23.284Z,8.82
2022-12-31T15:08:50.184Z,8.82
2022-12-31T15:11:43.259Z,9.07
2022-12-31T15:14:46.884Z,10.45
2022-12-31T15:17:23.167Z,9.20
2022-12-31T15:20:17.823Z,13.18
2022-12-31T15:22:50.856Z,14.65
2022-12-31T15:25:26.296Z,17.88
2022-12-31T15:27:54.362Z,12.38
2022-12-31T15:30:49.758Z,10.18
2022-12-31T15:33:25.882Z,10.10
2022-12-31T15:35:55.567Z,10.98
2022-12-31T15:38:37.879Z,11.55
2022-12-31T15:41:19.734Z,11.07
2022-12-31T15:43:51.795Z,7.93
2022-12-31T15:46:41.151Z,8.50
2022-12-31T15:49:15.860Z,7.70
2022-12-31T15:51:44.740Z,8.88
2022-12-31T15:54:25.399Z,8.38
2022-12-31T15:56:54.158Z,7.47
2022-12-31T15:59:22.787Z,9.20
2022-12-31T16:01:49.974Z,11.23
2022-12-31T16:04:29.055Z,6.90
2022-12-31T16:07:01.483Z,8.77
2022-12-31T16:09:31.505Z,7.45
2022-12-31T16:11:59.612Z,9.35
2022-12-31T16:14:36.702Z,9.73
2022-12-31T16:17:04.063Z,9.60
2022-12-31T16:19:36.336Z,9.15
2022-12-31T16:22:13.412Z,15.07
2022-12-31T16:25:02.883Z,9.98
2022-12-31T16:27:29.809Z,10.13
2022-12-31T16:30:00.591Z,10.27
2022-12-31T16:32:34.421Z,9.20
2022-12-31T16:35:01.226Z,12.30
2022-12-31T16:37:28.736Z,13.43
2022-12-31T16:39:58.229Z,23.23
2022-12-31T16:42:27.167Z,22.25
2022-12-31T16:44:57.364Z,23.30
2022-12-31T16:47:28.494Z,8.32
2022-12-31T16:50:11.032Z,12.82
2022-12-31T16:52:40.996Z,10.60
2022-12-31T16:55:18.388Z,15.15
2022-12-31T16:57:54.074Z,22.85
2022-12-31T17:00:21.898Z,34.00
2022-12-31T17:02:54.944Z,25.63
2022-12-31T17:05:23.973Z,18.25
2022-12-31T17:07:51.290Z,23.90
2022-12-31T17:10:22.950Z,28.05
2022-12-31T17:13:27.571Z,12.82
2022-12-31T17:15:44.125Z,11.70
2022-12-31T17:18:19.974Z,12.63
2022-12-31T17:20:48.680Z,12.52
2022-12-31T17:23:31.566Z,87.13
2022-12-31T17:26:08.241Z,14.43
2022-12-31T17:28:47.455Z,12.18
2022-12-31T17:31:31.224Z,11.85
2022-12-31T17:34:20.932Z,11.93
2022-12-31T17:37:06.378Z,14.13
2022-12-31T17:39:46.570Z,14.95
2022-12-31T17:42:22.175Z,13.50
2022-12-31T17:44:49.286Z,11.15
2022-12-31T17:47:16.035Z,7.50
2022-12-31T17:49:46.233Z,6.47
2022-12-31T17:52:15.197Z,7.88
2022-12-31T17:54:42.189Z,9.40
2022-12-31T17:57:23.464Z,9.95
2022-12-31T17:59:50.300Z,9.88
2022-12-31T18:02:17.248Z,8.43
2022-12-31T18:04:44.091Z,12.70
2022-12-31T18:07:10.889Z,9.10
2022-12-31T18:09:37.732Z,11.90
2022-12-31T18:12:06.198Z,11.20
2022-12-31T18:14:33.523Z,8.75
2022-12-31T18:17:00.807Z,8.77
2022-12-31T18:22:16.204Z,9.98
2022-12-31T18:24:44.130Z,9.63
2022-12-31T18:27:19.105Z,10.82
2022-12-31T18:29:46.430Z,10.45
2022-12-31T18:32:34.087Z,10.45
2022-12-31T18:35:02.038Z,9.40
2022-12-31T18:37:29.322Z,10.18
2022-12-31T18:42:25.816Z,11.18
2022-12-31T18:44:52.536Z,12.32
2022-12-31T18:47:23.267Z,11.90
2022-12-31T18:49:50.800Z,11.60
2022-12-31T18:52:22.141Z,16.85
2022-12-31T18:54:49.526Z,17.48
2022-12-31T18:57:16.610Z,15.75
2022-12-31T18:59:43.459Z,14.88
2022-12-31T19:02:19.620Z,11.93
2022-12-31T19:04:47.434Z,11.73
2022-12-31T19:07:14.208Z,12.45
2022-12-31T19:09:45.722Z,12.75
2022-12-31T19:12:13.986Z,11.23
2022-12-31T19:14:40.916Z,13.93
2022-12-31T19:19:34.769Z,14.15
2022-12-31T19:22:01.801Z,15.30
2022-12-31T19:24:28.530Z,17.92
2022-12-31T19:26:55.348Z,17.52
2022-12-31T19:29:27.689Z,17.40
2022-12-31T19:31:54.787Z,17.23
2022-12-31T19:36:48.599Z,18.15
2022-12-31T19:39:18.017Z,18.58
2022-12-31T19:41:45.553Z,16.10
2022-12-31T19:44:19.869Z,14.68
2022-12-31T19:46:47.200Z,13.70
2022-12-31T19:51:42.301Z,17.63
2022-12-31T19:54:10.060Z,20.50
2022-12-31T19:56:36.873Z,13.05
2022-12-31T19:59:08.832Z,22.05
2022-12-31T20:01:35.847Z,26.77
2022-12-31T20:06:29.702Z,21.55
2022-12-31T20:09:03.629Z,21.13
2022-12-31T20:13:57.350Z,22.27
2022-12-31T20:16:27.007Z,18.98
2022-12-31T20:18:53.983Z,20.45
2022-12-31T20:21:28.568Z,20.20
2022-12-31T20:23:55.513Z,18.00
2022-12-31T20:26:24.050Z,36.70
2022-12-31T20:28:51.139Z,14.20
2022-12-31T20:31:20.600Z,10.10
2022-12-31T20:33:47.445Z,10.95
2022-12-31T20:36:15.860Z,10.80
2022-12-31T20:38:43.076Z,14.60
2022-12-31T20:43:38.457Z,13.40
2022-12-31T20:46:14.872Z,12.88
2022-12-31T20:48:42.828Z,13.65
2022-12-31T20:53:36.169Z,13.65
2022-12-31T20:56:06.899Z,12.75
2022-12-31T20:58:34.285Z,13.52
2022-12-31T21:04:03.695Z,14.50
2022-12-31T21:06:15.874Z,15.38
2022-12-31T21:08:42.742Z,12.95
2022-12-31T21:11:28.867Z,11.73
2022-12-31T21:13:57.128Z,13.60
2022-12-31T21:16:24.983Z,17.80
2022-12-31T21:18:52.787Z,17.55
2022-12-31T21:21:19.760Z,18.90
2022-12-31T21:23:47.025Z,17.98
2022-12-31T21:28:40.651Z,15.23
2022-12-31T21:31:08.929Z,18.92
2022-12-31T21:33:35.652Z,18.65
2022-12-31T21:36:04.692Z,16.10
2022-12-31T21:38:31.874Z,17.88
2022-12-31T21:41:06.396Z,18.15
2022-12-31T21:43:33.559Z,27.75
2022-12-31T21:46:04.787Z,19.15
2022-12-31T21:48:32.143Z,21.52
2022-12-31T21:51:11.508Z,17.33
2022-12-31T21:53:38.293Z,11.88
2022-12-31T21:56:09.446Z,18.05
2022-12-31T21:58:45.201Z,18.67
2022-12-31T22:01:40.419Z,22.17
2022-12-31T22:04:28.122Z,24.33
2022-12-31T22:06:54.909Z,24.77
2022-12-31T22:09:21.627Z,22.08
2022-12-31T22:11:48.427Z,23.88
2022-12-31T22:14:15.142Z,22.17
2022-12-31T22:16:41.991Z,17.98
2022-12-31T22:19:08.719Z,25.85
2022-12-31T22:21:35.447Z,16.17
2022-12-31T22:24:03.134Z,28.77
2022-12-31T22:26:29.886Z,30.50
2022-12-31T22:28:59.565Z,32.08
2022-12-31T22:31:30.153Z,31.58
2022-12-31T22:33:58.345Z,31.08
2022-12-31T22:36:25.304Z,32.55
2022-12-31T22:38:58.043Z,28.05
2022-12-31T22:41:27.146Z,33.13
2022-12-31T22:44:02.975Z,34.00
2022-12-31T22:46:31.396Z,32.85
2022-12-31T22:49:00.002Z,29.15
2022-12-31T22:51:54.792Z,41.85
2022-12-31T22:54:14.972Z,36.90
2022-12-31T22:56:41.865Z,47.33
2022-12-31T22:59:09.299Z,53.80
2022-12-31T23:01:36.413Z,51.47
2022-12-31T23:04:03.561Z,61.33
2022-12-31T23:06:30.435Z,56.15
2022-12-31T23:09:16.061Z,31.75
2022-12-31T23:11:45.541Z,30.17
2022-12-31T23:14:35.667Z,32.53
2022-12-31T23:17:30.127Z,36.95
2022-12-31T23:20:18.000Z,40.45
2022-12-31T23:23:04.336Z,59.20
2022-12-31T23:25:32.973Z,58.38
2022-12-31T23:27:59.920Z,51.47
2022-12-31T23:30:26.781Z,48.55
2022-12-31T23:32:53.563Z,49.20
2022-12-31T23:35:20.306Z,36.30
2022-12-31T23:37:47.036Z,31.52
2022-12-31T23:40:20.721Z,22.65
2022-12-31T23:42:48.481Z,24.35
2022-12-31T23:47:42.087Z,28.30
2022-12-31T23:50:08.957Z,32.35
2022-12-31T23:52:35.677Z,32.33
2022-12-31T23:55:03.662Z,33.92
2022-12-31T23:57:30.705Z,25.10
2022-12-31T23:59:57.433Z,17.17
